createdAt,value
2022-10-19T00:02:22.390Z,46.46
2022-10-19T00:04:53.169Z,46.60
2022-10-19T00:07:24.586Z,46.59
2022-10-19T00:09:55.664Z,46.49
2022-10-19T00:12:26.454Z,46.60
2022-10-19T00:14:57.849Z,46.45
2022-10-19T00:17:28.697Z,46.49
2022-10-19T00:19:59.896Z,46.57
2022-10-19T00:22:30.656Z,46.38
2022-10-19T00:25:01.360Z,46.57
2022-10-19T00:27:32.389Z,46.55
2022-10-19T00:30:03.562Z,46.62
2022-10-19T00:32:34.772Z,46.63
2022-10-19T00:35:06.364Z,46.75
2022-10-19T00:37:37.274Z,46.72
2022-10-19T00:40:10.559Z,46.55
2022-10-19T00:42:41.144Z,46.67
2022-10-19T00:45:16.798Z,46.67
2022-10-19T00:47:48.246Z,46.74
2022-10-19T00:50:19.607Z,46.81
2022-10-19T00:52:50.588Z,46.56
2022-10-19T00:55:21.998Z,46.84
2022-10-19T00:57:53.224Z,46.62
2022-10-19T01:00:24.329Z,46.61
2022-10-19T01:02:56.051Z,46.76
2022-10-19T01:05:27.607Z,46.46
2022-10-19T01:07:59.052Z,46.61
2022-10-19T01:10:37.066Z,46.52
2022-10-19T01:13:25.507Z,46.62
2022-10-19T01:16:02.294Z,46.69
2022-10-19T01:18:42.929Z,46.53
2022-10-19T01:21:26.233Z,46.72
2022-10-19T01:24:33.972Z,46.70
2022-10-19T01:27:29.866Z,46.75
2022-10-19T01:30:10.609Z,46.70
2022-10-19T01:32:54.051Z,46.72
2022-10-19T01:35:32.831Z,46.82
2022-10-19T01:38:12.913Z,46.66
2022-10-19T01:40:51.347Z,46.84
2022-10-19T01:43:28.864Z,46.76
2022-10-19T01:46:07.586Z,46.64
2022-10-19T01:48:42.152Z,46.62
2022-10-19T01:51:18.629Z,46.85
2022-10-19T01:53:52.792Z,46.76
2022-10-19T01:56:28.931Z,46.54
2022-10-19T01:59:04.665Z,46.69
2022-10-19T02:01:39.737Z,46.76
2022-10-19T02:04:11.272Z,46.71
2022-10-19T02:06:42.295Z,46.81
2022-10-19T02:09:18.197Z,46.81
2022-10-19T02:11:54.668Z,46.56
2022-10-19T02:14:32.229Z,46.72
2022-10-19T02:17:07.378Z,46.84
2022-10-19T02:19:38.529Z,46.72
2022-10-19T02:22:10.071Z,46.84
2022-10-19T02:24:40.684Z,46.80
2022-10-19T02:27:12.345Z,46.73
2022-10-19T02:29:43.624Z,46.82
2022-10-19T02:32:14.588Z,46.88
2022-10-19T02:34:45.622Z,46.85
2022-10-19T02:37:16.386Z,46.80
2022-10-19T02:39:47.582Z,46.81
2022-10-19T02:42:26.100Z,46.94
2022-10-19T02:45:03.531Z,46.96
2022-10-19T02:47:38.216Z,47.02
2022-10-19T02:50:11.055Z,46.96
2022-10-19T02:52:42.551Z,46.99
2022-10-19T02:55:13.615Z,46.99
2022-10-19T02:57:44.779Z,47.08
2022-10-19T03:00:16.401Z,46.58
2022-10-19T03:02:48.304Z,46.62
2022-10-19T03:05:19.015Z,46.68
2022-10-19T03:07:49.856Z,46.89
2022-10-19T03:10:20.472Z,46.89
2022-10-19T03:12:51.141Z,46.65
2022-10-19T03:15:24.785Z,46.78
2022-10-19T03:17:57.132Z,46.80
2022-10-19T03:20:28.135Z,46.89
2022-10-19T03:22:59.064Z,46.80
2022-10-19T03:25:30.151Z,46.84
2022-10-19T03:28:00.993Z,46.84
2022-10-19T03:30:31.731Z,46.88
2022-10-19T03:33:02.308Z,46.73
2022-10-19T03:35:32.950Z,46.67
2022-10-19T03:38:03.528Z,46.67
2022-10-19T03:40:34.273Z,46.67
2022-10-19T03:43:05.233Z,46.66
2022-10-19T03:45:35.903Z,46.41
2022-10-19T03:48:07.732Z,46.20
2022-10-19T03:50:38.468Z,46.19
2022-10-19T03:53:09.194Z,46.16
2022-10-19T03:55:39.849Z,46.05
2022-10-19T03:58:10.619Z,46.27
2022-10-19T04:00:42.477Z,46.21
2022-10-19T04:03:13.578Z,46.20
2022-10-19T04:05:44.598Z,45.99
2022-10-19T04:08:15.248Z,45.78
2022-10-19T04:10:46.428Z,46.04
2022-10-19T04:13:17.322Z,46.04
2022-10-19T04:15:48.452Z,45.98
2022-10-19T04:18:19.021Z,46.06
2022-10-19T04:20:49.848Z,46.11
2022-10-19T04:23:20.513Z,46.06
2022-10-19T04:25:51.243Z,46.08
2022-10-19T04:28:21.812Z,46.21
2022-10-19T04:30:52.441Z,46.15
2022-10-19T04:33:23.341Z,46.28
2022-10-19T04:35:58.701Z,46.26
2022-10-19T04:38:30.140Z,46.31
2022-10-19T04:41:04.376Z,46.15
2022-10-19T04:43:35.735Z,46.34
2022-10-19T04:46:08.608Z,46.40
2022-10-19T04:48:41.040Z,46.57
2022-10-19T04:51:12.112Z,46.45
2022-10-19T04:53:44.552Z,46.34
2022-10-19T04:56:17.404Z,46.40
2022-10-19T04:58:48.440Z,46.46
2022-10-19T05:01:21.427Z,46.35
2022-10-19T05:06:33.219Z,46.45
2022-10-19T05:09:03.975Z,46.53
2022-10-19T05:11:34.671Z,46.36
2022-10-19T05:14:05.350Z,46.41
2022-10-19T05:16:35.964Z,46.41
2022-10-19T05:19:06.914Z,46.40
2022-10-19T05:21:37.501Z,46.49
2022-10-19T05:24:08.697Z,46.48
2022-10-19T05:26:39.448Z,46.38
2022-10-19T05:29:14.348Z,46.33
2022-10-19T05:31:45.127Z,46.33
2022-10-19T05:34:15.965Z,46.47
2022-10-19T05:36:46.750Z,46.56
2022-10-19T05:39:19.077Z,46.56
2022-10-19T05:41:50.644Z,46.69
2022-10-19T05:44:23.870Z,46.55
2022-10-19T05:46:54.999Z,46.41
2022-10-19T05:49:25.996Z,46.47
2022-10-19T05:51:56.963Z,46.54
2022-10-19T05:54:28.565Z,46.47
2022-10-19T05:56:59.601Z,46.32
2022-10-19T05:59:30.305Z,46.34
2022-10-19T06:02:00.990Z,46.53
2022-10-19T06:04:33.520Z,46.39
2022-10-19T06:07:05.222Z,46.43
2022-10-19T06:09:37.140Z,46.49
2022-10-19T06:12:07.981Z,46.35
2022-10-19T06:14:39.101Z,46.48
2022-10-19T06:17:09.878Z,46.47
2022-10-19T06:19:40.911Z,46.36
2022-10-19T06:22:11.573Z,46.54
2022-10-19T06:24:42.284Z,46.45
2022-10-19T06:27:13.424Z,46.41
2022-10-19T06:29:44.170Z,46.43
2022-10-19T06:32:14.913Z,46.50
2022-10-19T06:34:45.511Z,46.34
2022-10-19T06:37:16.185Z,46.33
2022-10-19T06:39:46.948Z,46.49
2022-10-19T06:42:17.610Z,46.47
2022-10-19T06:44:48.252Z,46.43
2022-10-19T06:47:18.930Z,46.50
2022-10-19T06:49:49.669Z,46.35
2022-10-19T06:52:20.780Z,46.43
2022-10-19T06:54:51.453Z,46.43
2022-10-19T06:57:22.440Z,46.54
2022-10-19T06:59:53.777Z,46.36
2022-10-19T07:02:24.787Z,46.40
2022-10-19T07:04:55.423Z,46.36
2022-10-19T07:07:26.138Z,46.48
2022-10-19T07:09:56.799Z,46.50
2022-10-19T07:12:27.921Z,46.38
2022-10-19T07:14:58.868Z,46.47
2022-10-19T07:17:29.625Z,46.50
2022-10-19T07:20:00.376Z,46.45
2022-10-19T07:22:31.099Z,46.42
2022-10-19T07:25:01.772Z,46.58
2022-10-19T07:27:37.433Z,46.36
2022-10-19T07:30:10.001Z,46.50
2022-10-19T07:32:44.515Z,46.34
2022-10-19T07:35:18.205Z,46.42
2022-10-19T07:37:48.933Z,46.44
2022-10-19T07:40:19.671Z,46.44
2022-10-19T07:42:50.292Z,46.42
2022-10-19T07:45:21.558Z,46.50
2022-10-19T07:47:52.505Z,46.41
2022-10-19T07:50:24.757Z,46.35
2022-10-19T07:52:56.346Z,46.47
2022-10-19T07:55:29.219Z,46.42
2022-10-19T07:58:02.153Z,46.20
2022-10-19T08:00:33.051Z,46.38
2022-10-19T08:03:57.494Z,46.38
2022-10-19T08:05:54.547Z,46.41
2022-10-19T08:08:25.379Z,46.41
2022-10-19T08:10:56.843Z,46.38
2022-10-19T08:13:27.613Z,46.32
2022-10-19T08:15:58.348Z,46.33
2022-10-19T08:18:29.119Z,46.26
2022-10-19T08:21:03.095Z,46.26
2022-10-19T08:23:33.810Z,46.13
2022-10-19T08:26:04.723Z,46.15
2022-10-19T08:28:35.430Z,46.24
2022-10-19T08:31:14.533Z,46.18
2022-10-19T08:33:45.791Z,46.23
2022-10-19T08:36:17.039Z,46.36
2022-10-19T08:38:48.851Z,46.32
2022-10-19T08:41:30.609Z,46.17
2022-10-19T08:44:28.042Z,46.20
2022-10-19T08:47:10.911Z,46.24
2022-10-19T08:49:43.002Z,46.22
2022-10-19T08:52:19.142Z,46.17
2022-10-19T08:54:54.398Z,46.17
2022-10-19T08:57:38.809Z,46.11
2022-10-19T09:00:18.615Z,46.13
2022-10-19T09:02:59.509Z,46.13
2022-10-19T09:05:39.720Z,46.18
2022-10-19T09:08:17.552Z,46.11
2022-10-19T09:10:51.664Z,45.99
2022-10-19T09:13:41.456Z,46.06
2022-10-19T09:16:23.262Z,46.10
2022-10-19T09:21:47.044Z,45.92
2022-10-19T09:24:30.920Z,46.11
2022-10-19T09:27:03.501Z,46.00
2022-10-19T09:29:42.579Z,45.93
2022-10-19T09:32:19.170Z,45.85
2022-10-19T09:34:53.742Z,45.85
2022-10-19T09:37:26.841Z,45.70
2022-10-19T09:39:58.509Z,45.76
2022-10-19T09:42:33.334Z,45.71
2022-10-19T09:45:18.070Z,45.65
2022-10-19T09:47:50.485Z,45.59
2022-10-19T09:50:24.281Z,45.83
2022-10-19T09:52:57.887Z,45.70
2022-10-19T09:55:36.044Z,45.66
2022-10-19T09:58:18.926Z,45.70
2022-10-19T10:00:51.701Z,45.67
2022-10-19T10:03:28.758Z,45.67
2022-10-19T10:06:03.340Z,45.59
2022-10-19T10:08:37.763Z,45.43
2022-10-19T10:11:14.195Z,45.46
2022-10-19T10:13:50.245Z,45.60
2022-10-19T10:16:24.146Z,45.41
2022-10-19T10:18:59.702Z,45.45
2022-10-19T10:21:33.712Z,45.36
2022-10-19T10:24:07.746Z,45.30
2022-10-19T10:26:44.243Z,45.37
2022-10-19T10:29:23.538Z,45.08
2022-10-19T10:31:56.629Z,45.16
2022-10-19T10:34:49.763Z,45.22
2022-10-19T10:37:24.878Z,45.12
2022-10-19T10:40:00.519Z,45.21
2022-10-19T10:42:41.030Z,45.26
2022-10-19T10:45:21.436Z,45.17
2022-10-19T10:47:53.783Z,45.01
2022-10-19T10:50:27.179Z,44.94
2022-10-19T10:53:03.313Z,44.93
2022-10-19T10:55:35.276Z,44.88
2022-10-19T10:58:20.255Z,44.88
2022-10-19T11:00:52.819Z,44.80
2022-10-19T11:03:27.142Z,44.79
2022-10-19T11:06:00.861Z,44.94
2022-10-19T11:08:37.224Z,44.80
2022-10-19T11:11:16.388Z,44.84
2022-10-19T11:13:52.814Z,44.79
2022-10-19T11:16:28.164Z,44.63
2022-10-19T11:19:03.405Z,44.62
2022-10-19T11:21:39.011Z,44.78
2022-10-19T11:24:19.760Z,44.77
2022-10-19T11:27:06.455Z,44.65
2022-10-19T11:29:57.517Z,44.58
2022-10-19T11:32:36.959Z,44.73
2022-10-19T11:35:15.919Z,44.48
2022-10-19T11:38:18.225Z,44.56
2022-10-19T11:41:16.830Z,44.65
2022-10-19T11:43:58.902Z,44.60
2022-10-19T11:46:36.091Z,44.65
2022-10-19T11:49:23.612Z,44.59
2022-10-19T11:52:01.734Z,44.49
2022-10-19T11:54:42.998Z,44.42
2022-10-19T11:57:17.869Z,44.58
2022-10-19T12:00:14.008Z,44.52
2022-10-19T12:03:08.130Z,44.48
2022-10-19T12:05:52.105Z,44.55
2022-10-19T12:08:35.150Z,44.42
2022-10-19T12:11:19.113Z,44.74
2022-10-19T12:13:52.938Z,44.47
2022-10-19T12:16:28.094Z,44.50
2022-10-19T12:19:01.860Z,44.69
2022-10-19T12:21:36.389Z,44.63
2022-10-19T12:24:14.967Z,44.77
2022-10-19T12:26:48.198Z,44.62
2022-10-19T12:29:22.729Z,44.68
2022-10-19T12:31:55.049Z,44.51
2022-10-19T12:34:32.965Z,44.46
2022-10-19T12:37:12.619Z,44.56
2022-10-19T12:39:44.409Z,44.67
2022-10-19T12:42:24.486Z,44.39
2022-10-19T12:45:14.639Z,44.36
2022-10-19T12:48:19.026Z,44.32
2022-10-19T12:51:07.954Z,44.26
2022-10-19T12:53:41.554Z,44.32
2022-10-19T12:56:13.444Z,44.42
2022-10-19T12:58:48.295Z,44.51
2022-10-19T13:01:22.137Z,44.65
2022-10-19T13:04:08.777Z,44.52
2022-10-19T13:06:42.780Z,44.56
2022-10-19T13:09:25.804Z,44.64
2022-10-19T13:12:29.735Z,44.69
2022-10-19T13:14:59.756Z,44.73
2022-10-19T13:17:46.332Z,44.54
2022-10-19T13:20:52.660Z,44.63
2022-10-19T13:23:42.959Z,44.51
2022-10-19T13:26:35.828Z,44.70
2022-10-19T13:29:25.254Z,44.68
2022-10-19T13:31:56.238Z,44.47
2022-10-19T13:34:27.185Z,44.53
2022-10-19T13:37:05.503Z,44.58
2022-10-19T13:39:40.849Z,44.43
2022-10-19T13:42:27.022Z,44.77
2022-10-19T13:44:57.969Z,44.59
2022-10-19T13:47:41.977Z,44.65
2022-10-19T13:50:32.597Z,44.57
2022-10-19T13:53:18.788Z,44.61
2022-10-19T13:56:09.956Z,44.61
2022-10-19T13:59:19.168Z,44.70
2022-10-19T14:02:03.971Z,44.55
2022-10-19T14:04:42.612Z,44.47
2022-10-19T14:07:20.914Z,44.39
2022-10-19T14:10:03.558Z,44.26
2022-10-19T14:12:38.291Z,44.19
2022-10-19T14:15:23.558Z,44.04
2022-10-19T14:17:54.549Z,44.04
2022-10-19T14:20:36.503Z,44.09
2022-10-19T14:26:08.560Z,44.15
2022-10-19T14:28:40.347Z,44.20
2022-10-19T14:31:18.482Z,44.28
2022-10-19T14:34:02.444Z,44.30
2022-10-19T14:36:37.496Z,44.40
2022-10-19T14:39:08.813Z,44.30
2022-10-19T14:41:39.965Z,44.32
2022-10-19T14:44:31.469Z,44.34
2022-10-19T14:47:03.429Z,44.41
2022-10-19T14:49:34.341Z,44.45
2022-10-19T14:52:05.954Z,44.31
2022-10-19T14:54:40.667Z,44.40
2022-10-19T14:57:16.930Z,44.39
2022-10-19T14:59:50.958Z,44.48
2022-10-19T15:02:25.991Z,44.35
2022-10-19T15:04:59.960Z,44.40
2022-10-19T15:07:36.373Z,44.60
2022-10-19T15:10:10.317Z,44.69
2022-10-19T15:12:43.654Z,44.60
2022-10-19T15:15:19.287Z,44.65
2022-10-19T15:17:56.294Z,44.63
2022-10-19T15:20:30.465Z,44.70
2022-10-19T15:23:02.588Z,44.63
2022-10-19T15:25:37.191Z,44.58
2022-10-19T15:28:34.970Z,44.58
2022-10-19T15:31:15.936Z,44.65
2022-10-19T15:33:50.778Z,44.75
2022-10-19T15:36:23.129Z,44.82
2022-10-19T15:39:18.081Z,44.79
2022-10-19T15:41:56.433Z,44.87
2022-10-19T15:44:41.512Z,44.81
2022-10-19T15:47:25.341Z,44.79
2022-10-19T15:49:58.975Z,44.75
2022-10-19T15:52:31.361Z,44.96
2022-10-19T15:55:03.395Z,45.13
2022-10-19T15:57:37.594Z,45.01
2022-10-19T16:00:16.381Z,44.93
2022-10-19T16:02:47.302Z,44.97
2022-10-19T16:05:18.755Z,44.75
2022-10-19T16:07:50.261Z,44.86
2022-10-19T16:10:23.315Z,45.04
2022-10-19T16:12:54.694Z,45.00
2022-10-19T16:15:26.797Z,44.95
2022-10-19T16:17:59.811Z,45.05
2022-10-19T16:20:31.756Z,45.05
2022-10-19T16:23:02.695Z,45.19
2022-10-19T16:25:33.640Z,45.28
2022-10-19T16:28:04.383Z,45.06
2022-10-19T16:30:35.119Z,45.04
2022-10-19T16:33:05.966Z,45.14
2022-10-19T16:35:38.388Z,45.22
2022-10-19T16:38:09.046Z,45.40
2022-10-19T16:40:40.183Z,45.09
2022-10-19T16:43:11.012Z,44.93
2022-10-19T16:45:45.172Z,45.20
2022-10-19T16:48:16.842Z,45.21
2022-10-19T16:51:15.073Z,45.29
2022-10-19T16:53:47.992Z,45.27
2022-10-19T16:56:19.310Z,45.18
2022-10-19T16:58:50.405Z,45.22
2022-10-19T17:01:22.272Z,45.46
2022-10-19T17:03:54.436Z,45.48
2022-10-19T17:06:26.699Z,45.35
2022-10-19T17:11:50.201Z,45.34
2022-10-19T17:14:21.117Z,45.48
2022-10-19T17:16:52.065Z,45.41
2022-10-19T17:19:23.229Z,45.30
2022-10-19T17:21:55.781Z,45.28
2022-10-19T17:24:26.998Z,45.33
2022-10-19T17:26:58.075Z,45.30
2022-10-19T17:29:29.119Z,45.09
2022-10-19T17:32:00.089Z,45.07
2022-10-19T17:34:31.056Z,44.86
2022-10-19T17:37:01.732Z,44.83
2022-10-19T17:39:32.716Z,44.92
2022-10-19T17:42:05.058Z,44.86
2022-10-19T17:44:36.025Z,45.00
2022-10-19T17:47:06.853Z,45.10
2022-10-19T17:49:37.993Z,45.14
2022-10-19T17:52:09.057Z,45.20
2022-10-19T17:54:48.824Z,45.06
2022-10-19T17:57:30.986Z,45.15
2022-10-19T18:00:01.834Z,45.07
2022-10-19T18:02:32.725Z,45.22
2022-10-19T18:05:04.767Z,45.15
2022-10-19T18:07:37.049Z,45.22
2022-10-19T18:10:09.046Z,44.85
2022-10-19T18:12:39.882Z,44.87
2022-10-19T18:15:11.570Z,44.67
2022-10-19T18:17:42.624Z,44.71
2022-10-19T18:20:14.481Z,44.61
2022-10-19T18:22:45.491Z,44.44
2022-10-19T18:25:25.959Z,44.54
2022-10-19T18:28:07.315Z,44.57
2022-10-19T18:30:40.012Z,44.76
2022-10-19T18:33:11.408Z,44.66
2022-10-19T18:35:42.865Z,44.74
2022-10-19T18:38:13.571Z,44.72
2022-10-19T18:40:45.236Z,44.85
2022-10-19T18:43:16.236Z,44.79
2022-10-19T18:45:56.053Z,44.89
2022-10-19T18:48:27.790Z,45.00
2022-10-19T18:50:59.083Z,44.89
2022-10-19T18:53:31.190Z,44.97
2022-10-19T18:56:03.460Z,45.02
2022-10-19T18:58:35.309Z,45.23
2022-10-19T19:01:08.488Z,45.18
2022-10-19T19:03:41.362Z,45.11
2022-10-19T19:06:14.207Z,45.31
2022-10-19T19:08:45.936Z,45.31
2022-10-19T19:11:18.765Z,45.36
2022-10-19T19:13:52.487Z,45.27
2022-10-19T19:16:24.241Z,45.25
2022-10-19T19:18:55.328Z,45.21
2022-10-19T19:21:28.075Z,45.47
2022-10-19T19:24:01.850Z,45.52
2022-10-19T19:26:35.269Z,45.19
2022-10-19T19:29:06.777Z,45.27
2022-10-19T19:31:39.257Z,45.17
2022-10-19T19:34:10.560Z,45.38
2022-10-19T19:36:47.272Z,45.11
2022-10-19T19:39:21.006Z,45.19
2022-10-19T19:41:52.577Z,45.13
2022-10-19T19:44:25.029Z,45.31
2022-10-19T19:46:56.021Z,45.47
2022-10-19T19:49:27.532Z,45.32
2022-10-19T19:51:58.314Z,45.27
2022-10-19T19:54:29.161Z,45.36
2022-10-19T19:56:59.994Z,45.49
2022-10-19T19:59:30.834Z,45.36
2022-10-19T20:02:01.853Z,45.61
2022-10-19T20:04:32.823Z,45.45
2022-10-19T20:07:03.561Z,45.64
2022-10-19T20:09:34.749Z,45.50
2022-10-19T20:12:05.755Z,45.51
2022-10-19T20:14:36.698Z,45.51
2022-10-19T20:17:07.428Z,45.73
2022-10-19T20:19:38.289Z,45.71
2022-10-19T20:22:09.276Z,45.46
2022-10-19T20:24:40.057Z,45.85
2022-10-19T20:27:10.795Z,45.73
2022-10-19T20:29:41.669Z,45.75
2022-10-19T20:32:12.376Z,45.62
2022-10-19T20:34:43.432Z,45.62
2022-10-19T20:37:14.233Z,45.71
2022-10-19T20:39:45.112Z,45.80
2022-10-19T20:42:15.897Z,45.77
2022-10-19T20:44:46.672Z,45.71
2022-10-19T20:47:17.621Z,45.91
2022-10-19T20:49:48.584Z,45.74
2022-10-19T20:52:19.922Z,45.86
2022-10-19T20:54:52.034Z,45.79
2022-10-19T20:57:22.797Z,45.75
2022-10-19T20:59:53.481Z,45.82
2022-10-19T21:02:24.406Z,45.83
2022-10-19T21:04:55.143Z,45.87
2022-10-19T21:07:26.137Z,45.78
2022-10-19T21:09:58.206Z,45.72
2022-10-19T21:12:28.893Z,45.93
2022-10-19T21:14:59.581Z,45.76
2022-10-19T21:20:01.958Z,45.85
2022-10-19T21:22:39.074Z,45.96
2022-10-19T21:25:11.832Z,46.02
2022-10-19T21:27:42.439Z,45.76
2022-10-19T21:30:14.509Z,45.99
2022-10-19T21:32:45.138Z,45.98
2022-10-19T21:35:16.178Z,45.93
2022-10-19T21:37:46.904Z,45.92
2022-10-19T21:40:17.962Z,45.87
2022-10-19T21:42:48.700Z,45.88
2022-10-19T21:45:29.818Z,45.84
2022-10-19T21:48:01.542Z,45.84
2022-10-19T21:50:32.273Z,45.92
2022-10-19T21:53:03.007Z,45.81
2022-10-19T21:55:37.440Z,45.82
2022-10-19T21:58:08.053Z,45.98
2022-10-19T22:00:38.701Z,45.90
2022-10-19T22:03:09.675Z,45.90
2022-10-19T22:05:40.573Z,45.96
2022-10-19T22:08:11.222Z,45.92
2022-10-19T22:10:41.845Z,45.85
2022-10-19T22:13:12.461Z,45.83
2022-10-19T22:15:43.844Z,45.80
2022-10-19T22:18:14.478Z,45.87
2022-10-19T22:20:45.130Z,45.91
2022-10-19T22:23:15.754Z,45.81
2022-10-19T22:25:46.690Z,45.94
2022-10-19T22:28:17.536Z,45.89
2022-10-19T22:30:55.075Z,45.92
2022-10-19T22:33:26.672Z,45.96
2022-10-19T22:36:00.108Z,46.00
2022-10-19T22:38:31.439Z,45.99
2022-10-19T22:41:55.083Z,45.94
2022-10-19T22:45:18.329Z,45.95
2022-10-19T22:48:41.453Z,46.08
2022-10-19T22:52:04.899Z,45.94
2022-10-19T22:54:35.465Z,45.96
2022-10-19T22:57:06.163Z,46.11
2022-10-19T22:59:37.305Z,45.98
2022-10-19T23:02:07.990Z,45.91
2022-10-19T23:04:38.580Z,46.03
2022-10-19T23:07:09.321Z,46.04
2022-10-19T23:09:39.924Z,45.93
2022-10-19T23:12:10.542Z,46.20
2022-10-19T23:14:41.123Z,46.17
2022-10-19T23:17:11.656Z,46.11
2022-10-19T23:19:42.292Z,46.20
2022-10-19T23:22:12.860Z,46.09
2022-10-19T23:24:43.433Z,46.15
2022-10-19T23:27:15.481Z,46.15
2022-10-19T23:29:46.052Z,46.16
2022-10-19T23:32:16.552Z,46.05
2022-10-19T23:34:48.452Z,46.12
2022-10-19T23:37:19.211Z,46.14
2022-10-19T23:39:49.724Z,45.94
2022-10-19T23:42:20.324Z,46.07
2022-10-19T23:44:51.002Z,46.21
2022-10-19T23:47:21.841Z,46.07
2022-10-19T23:49:52.443Z,46.25
2022-10-19T23:52:23.062Z,46.23
2022-10-19T23:54:53.751Z,46.11
2022-10-19T23:57:24.504Z,46.15
2022-10-19T23:59:55.123Z,46.38
